Time;durP1;ratioP1;P1;durP2;ratioP2;P2;SDS_P1;SDS_P2;PMS_P1;PMS_P2;Temp;Humidity;BMP_temperature;BMP_pressure;BME280_temperature;BME280_humidity;BME280_pressure;Samples;Min_cycle;Max_cycle;Signal;HPM_P1;HPM_P2
2023/09/23 00:02:28;;;;;;;;;6.50;1.00;;;;;14.92;61.37;100548.31;5050367;28;45289;-81
2023/09/23 00:04:53;;;;;;;;;1.75;1.25;;;;;14.91;61.59;100551.88;5061052;28;45297;-81
2023/09/23 00:07:19;;;;;;;;;1.75;1.75;;;;;14.94;61.58;100562.25;5055546;28;45386;-81
2023/09/23 00:09:44;;;;;;;;;3.25;1.00;;;;;14.90;61.14;100556.28;5068177;28;69750;-81
2023/09/23 00:12:09;;;;;;;;;1.75;1.00;;;;;14.89;61.38;100557.22;5058676;28;51968;-81
2023/09/23 00:14:35;;;;;;;;;1.25;1.00;;;;;14.88;61.80;100560.78;5051915;28;45365;-81
2023/09/23 00:17:03;;;;;;;;;0.00;0.00;;;;;14.86;61.92;100559.16;5061049;28;45364;-82
2023/09/23 00:19:29;;;;;;;;;4.25;1.00;;;;;14.80;61.73;100552.38;5058591;28;46358;-81
2023/09/23 00:21:55;;;;;;;;;1.00;1.00;;;;;14.84;61.60;100563.63;5060929;28;45872;-82
2023/09/23 00:24:21;;;;;;;;;1.00;1.00;;;;;14.84;61.87;100571.53;5071879;27;45425;-82
2023/09/23 00:26:48;;;;;;;;;3.25;1.00;;;;;14.84;61.83;100571.53;5060409;28;45460;-82
2023/09/23 00:29:13;;;;;;;;;2.50;1.00;;;;;14.79;61.84;100571.75;5058824;28;46910;-82
2023/09/23 00:31:39;;;;;;;;;2.00;2.00;;;;;14.83;61.96;100573.31;5057212;28;45257;-81
2023/09/23 00:34:05;;;;;;;;;3.25;1.00;;;;;14.75;62.26;100563.16;5038599;28;61073;-81
2023/09/23 00:36:30;;;;;;;;;2.00;1.00;;;;;14.79;62.14;100579.66;5062360;28;45453;-79
2023/09/23 00:38:56;;;;;;;;;4.25;1.00;;;;;14.78;62.11;100578.81;5056398;28;45357;-79
2023/09/23 00:41:21;;;;;;;;;3.00;1.75;;;;;14.78;62.16;100577.94;5057646;28;45320;-80
2023/09/23 00:43:48;;;;;;;;;3.75;1.25;;;;;14.76;61.96;100574.53;5058462;28;61052;-80
2023/09/23 00:46:18;;;;;;;;;2.00;0.00;;;;;14.76;61.98;100585.06;5060074;28;45892;-78
2023/09/23 00:48:44;;;;;;;;;0.75;0.50;;;;;14.75;62.11;100581.59;5046124;28;46324;-78
2023/09/23 00:51:10;;;;;;;;;1.00;1.00;;;;;14.76;62.44;100585.91;5052092;28;45421;-78
2023/09/23 00:53:39;;;;;;;;;2.00;1.00;;;;;14.73;62.18;100580.81;5069123;28;45324;-79
2023/09/23 00:56:05;;;;;;;;;0.75;0.75;;;;;14.74;62.52;100581.66;5060147;28;45360;-79
2023/09/23 00:58:31;;;;;;;;;2.00;1.00;;;;;14.71;62.26;100574.75;5055573;28;47175;-79
2023/09/23 01:00:57;;;;;;;;;2.00;0.50;;;;;14.70;62.47;100580.09;5042326;28;51944;-78
2023/09/23 01:03:23;;;;;;;;;1.00;0.75;;;;;14.67;62.16;100577.59;5053852;28;45504;-78
2023/09/23 01:06:06;;;;;;;;;1.25;1.00;;;;;14.69;62.42;100584.50;5061394;28;45276;-79
2023/09/23 01:08:31;;;;;;;;;2.00;1.00;;;;;14.68;62.49;100582.81;5041331;28;47214;-79
2023/09/23 01:10:57;;;;;;;;;1.00;1.00;;;;;14.67;62.72;100580.25;5050536;28;66115;-79
2023/09/23 01:13:29;;;;;;;;;0.25;0.25;;;;;14.67;62.38;100586.34;5046878;28;62936;-79
2023/09/23 01:15:55;;;;;;;;;1.50;0.50;;;;;14.68;62.42;100584.56;5054746;28;45289;-78
2023/09/23 01:18:28;;;;;;;;;2.75;0.50;;;;;14.66;62.58;100589.94;5047114;28;46068;-79
2023/09/23 01:20:57;;;;;;;;;2.25;1.00;;;;;14.66;62.53;100587.28;5056242;28;46024;-79
2023/09/23 01:23:22;;;;;;;;;2.25;0.00;;;;;14.67;62.29;100589.00;5060032;28;45420;-79
2023/09/23 01:25:47;;;;;;;;;4.00;1.00;;;;;14.64;62.76;100581.22;5051561;28;45388;-78
2023/09/23 01:28:13;;;;;;;;;2.50;1.75;;;;;14.65;62.47;100588.22;5043323;28;45333;-80
2023/09/23 01:30:46;;;;;;;;;1.50;0.00;;;;;14.65;62.47;100595.25;5053200;28;45347;-79
2023/09/23 01:33:14;;;;;;;;;2.50;1.00;;;;;14.64;62.67;100583.84;5059701;28;45191;-78
2023/09/23 01:35:39;;;;;;;;;0.75;0.75;;;;;14.66;62.29;100594.31;5059492;28;44768;-78
2023/09/23 01:38:06;;;;;;;;;0.00;0.00;;;;;14.64;62.32;100585.63;5054170;28;46021;-79
2023/09/23 01:40:32;;;;;;;;;3.75;1.00;;;;;14.67;62.65;100594.25;5050517;28;45503;-79
2023/09/23 01:42:58;;;;;;;;;1.50;0.50;;;;;14.66;62.36;100589.06;5061236;28;45301;-79
2023/09/23 01:45:26;;;;;;;;;2.00;0.50;;;;;14.71;62.93;100598.44;5064193;28;45451;-79
2023/09/23 01:47:52;;;;;;;;;1.00;1.00;;;;;14.68;62.88;100595.09;5064510;28;45703;-78
2023/09/23 01:50:18;;;;;;;;;1.00;1.00;;;;;14.67;62.79;100599.53;5077147;27;45799;-78
2023/09/23 01:52:45;;;;;;;;;2.50;0.00;;;;;14.66;62.90;100599.59;5071979;28;45387;-78
2023/09/23 01:55:12;;;;;;;;;2.25;0.75;;;;;14.66;62.61;100602.22;5075681;27;45517;-79
2023/09/23 01:57:40;;;;;;;;;1.00;1.00;;;;;14.67;62.79;100609.22;5041669;28;47449;-77
2023/09/23 02:00:07;;;;;;;;;0.50;0.50;;;;;14.66;63.38;100607.50;5059491;28;45521;-78
2023/09/23 02:02:33;;;;;;;;;0.00;0.00;;;;;14.66;62.56;100604.84;5071672;28;45249;-78
2023/09/23 02:04:59;;;;;;;;;1.50;1.00;;;;;14.67;62.88;100604.78;5058860;28;45581;-78
2023/09/23 02:07:26;;;;;;;;;2.00;0.00;;;;;14.64;62.28;100606.72;5049490;28;46137;-78
2023/09/23 02:09:52;;;;;;;;;0.50;0.25;;;;;14.64;63.00;100617.25;5050920;28;45461;-78
2023/09/23 02:12:17;;;;;;;;;0.00;0.00;;;;;14.58;62.90;100613.97;5065209;27;45447;-79
2023/09/23 02:14:42;;;;;;;;;0.50;0.00;;;;;14.53;63.09;100620.34;5057999;28;67699;-78
2023/09/23 02:17:08;;;;;;;;;0.75;0.75;;;;;14.54;62.96;100622.91;5054964;28;45420;-78
2023/09/23 02:19:34;;;;;;;;;1.75;1.25;;;;;14.52;62.78;100615.97;5057808;28;45480;-79
2023/09/23 02:22:05;;;;;;;;;1.25;1.00;;;;;14.48;63.09;100617.91;5048409;28;45247;-81
2023/09/23 02:24:32;;;;;;;;;2.00;0.50;;;;;14.45;63.12;100618.06;5057567;28;45420;-82
2023/09/23 02:26:57;;;;;;;;;1.50;1.00;;;;;14.44;63.36;100627.72;5059674;28;46119;-82
2023/09/23 02:29:23;;;;;;;;;1.75;1.00;;;;;14.41;63.18;100630.50;5046296;28;45439;-81
2023/09/23 02:31:49;;;;;;;;;1.00;1.00;;;;;14.41;63.04;100635.78;5054796;28;45361;-82
2023/09/23 02:34:18;;;;;;;;;2.00;0.75;;;;;14.42;63.31;100639.25;5075571;27;45270;-80
2023/09/23 02:36:47;;;;;;;;;2.25;1.00;;;;;14.40;63.46;100639.31;5048249;28;45338;-80
2023/09/23 02:39:17;;;;;;;;;1.00;0.00;;;;;14.37;63.28;100642.09;5052895;28;45400;-81
2023/09/23 02:41:45;;;;;;;;;1.00;0.00;;;;;14.37;63.19;100649.13;5073386;28;45339;-81
2023/09/23 02:44:22;;;;;;;;;2.00;0.25;;;;;14.33;63.30;100645.78;5043991;28;45592;-81
2023/09/23 02:46:52;;;;;;;;;2.50;0.00;;;;;14.33;63.54;100655.47;5087122;27;47464;-75
2023/09/23 02:49:19;;;;;;;;;3.00;1.00;;;;;14.31;63.76;100662.59;5059503;28;45323;-80
2023/09/23 02:51:44;;;;;;;;;2.75;0.75;;;;;14.28;63.51;100654.81;5054020;28;45406;-80
2023/09/23 02:54:13;;;;;;;;;1.00;1.00;;;;;14.22;63.77;100654.16;5054418;28;45479;-80
2023/09/23 02:56:39;;;;;;;;;2.75;1.00;;;;;14.22;64.04;100664.69;5062527;28;45538;-80
2023/09/23 02:59:13;;;;;;;;;3.75;1.00;;;;;14.20;63.81;100665.66;5035724;28;45408;-80
2023/09/23 03:01:45;;;;;;;;;5.00;1.00;;;;;14.13;64.02;100662.44;5055442;28;45356;-79
2023/09/23 03:04:19;;;;;;;;;1.25;1.25;;;;;14.11;63.81;100666.06;5048979;28;45325;-79
2023/09/23 03:06:55;;;;;;;;;1.75;1.00;;;;;14.09;64.67;100662.63;5072996;27;46123;-80
2023/09/23 03:09:25;;;;;;;;;1.25;1.00;;;;;14.07;64.19;100670.59;5056774;28;45316;-81
2023/09/23 03:11:58;;;;;;;;;1.00;1.00;;;;;14.03;64.69;100669.03;5047873;28;45444;-81
2023/09/23 03:14:28;;;;;;;;;1.00;1.00;;;;;14.02;64.22;100672.56;5060710;28;45354;-81
2023/09/23 03:16:54;;;;;;;;;0.25;0.25;;;;;14.02;63.99;100676.06;5060279;28;45527;-80
2023/09/23 03:19:27;;;;;;;;;2.75;1.50;;;;;13.98;64.48;100671.00;5058812;28;45226;-81
2023/09/23 03:21:56;;;;;;;;;2.00;0.25;;;;;14.00;64.66;100693.66;5070903;27;45444;-80
2023/09/23 03:24:26;;;;;;;;;2.50;1.75;;;;;14.00;64.34;100692.81;5054966;28;45333;-81
2023/09/23 03:26:56;;;;;;;;;5.00;1.75;;;;;13.96;64.32;100691.25;5057759;28;45336;-81
2023/09/23 03:29:22;;;;;;;;;3.00;2.00;;;;;13.99;64.22;100699.03;5059557;28;45339;-79
2023/09/23 03:31:48;;;;;;;;;0.00;0.00;;;;;13.97;64.68;100706.09;5061442;28;45459;-79
2023/09/23 03:34:14;;;;;;;;;2.50;1.00;;;;;13.93;64.52;100705.38;5061112;28;45565;-79
2023/09/23 03:36:41;;;;;;;;;2.00;1.00;;;;;13.97;64.51;100709.59;5055454;28;46368;-79
2023/09/23 03:39:10;;;;;;;;;3.00;2.00;;;;;13.96;64.88;100715.78;5059193;28;45818;-81
2023/09/23 03:41:39;;;;;;;;;1.00;1.00;;;;;13.98;64.61;100711.31;5063099;28;45471;-78
2023/09/23 03:44:05;;;;;;;;;3.50;1.00;;;;;13.98;64.56;100713.09;5061269;28;45388;-80
2023/09/23 03:46:31;;;;;;;;;2.00;1.00;;;;;13.96;64.32;100722.81;5049226;28;58549;-81
2023/09/23 03:48:57;;;;;;;;;1.25;1.00;;;;;13.99;64.61;100718.28;5049002;28;45660;-81
2023/09/23 03:51:22;;;;;;;;;3.25;1.00;;;;;13.97;64.49;100720.13;5076884;28;45337;-80
2023/09/23 03:53:51;;;;;;;;;0.50;0.50;;;;;13.96;64.46;100720.19;5072963;28;45652;-80
2023/09/23 03:56:17;;;;;;;;;0.00;0.00;;;;;13.99;64.44;100725.34;5050771;28;48106;-79
2023/09/23 03:58:43;;;;;;;;;2.50;1.75;;;;;13.95;64.56;100723.72;5077361;28;45358;-79
2023/09/23 04:01:13;;;;;;;;;1.00;1.00;;;;;13.94;64.69;100716.78;5058960;28;45387;-79
2023/09/23 04:03:39;;;;;;;;;3.00;1.00;;;;;13.91;64.54;100715.09;5051602;28;45295;-79
2023/09/23 04:06:05;;;;;;;;;2.25;2.00;;;;;13.95;64.52;100727.25;5060894;28;45432;-79
2023/09/23 04:08:30;;;;;;;;;0.75;0.75;;;;;13.89;64.78;100719.59;5078974;27;45501;-79
2023/09/23 04:10:56;;;;;;;;;6.25;1.00;;;;;13.90;64.43;100729.19;5057258;28;45424;-79
2023/09/23 04:13:21;;;;;;;;;3.50;1.00;;;;;13.91;64.67;100730.03;5060520;28;45451;-79
2023/09/23 04:15:47;;;;;;;;;4.75;2.00;;;;;13.91;64.49;100730.03;5057615;28;46019;-78
2023/09/23 04:18:12;;;;;;;;;0.00;0.00;;;;;13.90;64.39;100730.94;5060718;28;45474;-78
2023/09/23 04:20:37;;;;;;;;;2.00;1.00;;;;;13.87;64.59;100726.69;5077748;28;45562;-78
2023/09/23 04:23:03;;;;;;;;;3.25;1.00;;;;;13.88;64.83;100738.91;5060116;28;57313;-78
2023/09/23 04:25:29;;;;;;;;;1.00;1.00;;;;;13.82;64.96;100726.88;5060420;28;46984;-78
2023/09/23 04:27:57;;;;;;;;;2.00;1.25;;;;;13.83;65.14;100740.88;5060525;28;45453;-78
2023/09/23 04:30:22;;;;;;;;;2.00;1.00;;;;;13.84;64.91;100737.31;5058218;28;45902;-78
2023/09/23 04:32:48;;;;;;;;;3.00;1.25;;;;;13.81;65.47;100740.06;5059803;28;57312;-78
2023/09/23 04:35:16;;;;;;;;;5.50;1.00;;;;;13.81;65.28;100748.84;5059950;28;46942;-80
2023/09/23 04:37:42;;;;;;;;;3.50;1.75;;;;;13.74;65.39;100750.00;5077120;27;45497;-81
2023/09/23 04:40:12;;;;;;;;;1.75;1.25;;;;;13.75;64.70;100750.84;5054550;28;45457;-81
2023/09/23 04:42:39;;;;;;;;;4.75;2.00;;;;;13.73;65.03;100750.91;5056463;28;45490;-80
2023/09/23 04:45:05;;;;;;;;;1.50;1.50;;;;;13.75;65.14;100759.59;5047816;28;46985;-80
2023/09/23 04:47:30;;;;;;;;;2.00;2.00;;;;;13.74;65.19;100765.78;5060640;28;45203;-78
2023/09/23 04:49:57;;;;;;;;;1.50;1.00;;;;;13.74;65.27;100767.53;5077313;27;45363;-79
2023/09/23 04:52:23;;;;;;;;;3.00;1.00;;;;;13.76;65.18;100773.63;5057532;28;45335;-80
2023/09/23 04:54:53;;;;;;;;;2.00;1.75;;;;;13.76;65.10;100776.25;5058983;28;46979;-79
2023/09/23 04:57:19;;;;;;;;;1.00;1.00;;;;;13.73;65.06;100782.47;5056471;28;46046;-78
2023/09/23 04:59:44;;;;;;;;;1.50;1.00;;;;;13.73;65.24;100779.84;5066279;27;45549;-78
2023/09/23 05:02:12;;;;;;;;;2.00;1.00;;;;;13.73;65.15;100776.38;5053764;28;71863;-79
2023/09/23 05:04:38;;;;;;;;;1.75;1.75;;;;;13.73;65.07;100790.38;5053437;28;47387;-79
2023/09/23 05:07:03;;;;;;;;;3.50;2.00;;;;;13.72;65.09;100779.91;5049563;28;46002;-78
2023/09/23 05:09:28;;;;;;;;;1.00;1.00;;;;;13.71;65.66;100793.97;5057806;28;45411;-78
2023/09/23 05:11:54;;;;;;;;;2.00;0.25;;;;;13.65;65.33;100790.66;5055308;28;59061;-78
2023/09/23 05:14:20;;;;;;;;;2.50;0.00;;;;;13.66;65.40;100802.03;5048884;28;45978;-79
2023/09/23 05:16:50;;;;;;;;;2.75;0.00;;;;;13.62;65.43;100797.81;5056227;28;45494;-79
2023/09/23 05:19:16;;;;;;;;;2.00;1.00;;;;;13.59;65.46;100792.69;5072886;27;45506;-79
2023/09/23 05:21:42;;;;;;;;;1.50;1.00;;;;;13.64;65.16;100803.88;5049073;28;46853;-78
2023/09/23 05:24:09;;;;;;;;;2.00;0.00;;;;;13.63;65.65;100805.66;5036332;28;47931;-79
2023/09/23 05:26:37;;;;;;;;;2.75;1.00;;;;;13.61;65.55;100803.97;5053219;28;45340;-79
2023/09/23 05:29:02;;;;;;;;;0.75;0.00;;;;;13.61;65.69;100814.50;5048109;28;45488;-79
2023/09/23 05:31:28;;;;;;;;;1.25;1.25;;;;;13.59;65.58;100809.31;5056538;28;45189;-79
2023/09/23 05:33:54;;;;;;;;;1.00;0.50;;;;;13.60;65.61;100816.28;5055055;28;45557;-79
2023/09/23 05:36:20;;;;;;;;;2.25;1.00;;;;;13.59;65.65;100816.34;5055032;28;45376;-80
2023/09/23 05:38:45;;;;;;;;;1.00;1.00;;;;;13.61;65.88;100830.28;5061537;28;45292;-79
2023/09/23 05:41:10;;;;;;;;;3.00;1.00;;;;;13.60;65.54;100839.94;5056725;28;45510;-79
2023/09/23 05:43:36;;;;;;;;;1.75;0.00;;;;;13.60;65.51;100839.94;5047728;28;68996;-79
2023/09/23 05:46:05;;;;;;;;;1.00;1.00;;;;;13.56;65.59;100846.22;5052077;28;66023;-79
2023/09/23 05:48:30;;;;;;;;;3.75;1.00;;;;;13.56;65.41;100855.88;5059072;28;45428;-78
2023/09/23 05:51:04;;;;;;;;;1.50;0.00;;;;;13.56;66.13;100863.78;5059064;28;45238;-78
2023/09/23 05:53:30;;;;;;;;;2.00;1.00;;;;;13.56;65.48;100869.03;5042091;28;46449;-77
2023/09/23 05:55:55;;;;;;;;;1.00;1.00;;;;;13.49;65.75;100857.88;5049308;28;45386;-77
2023/09/23 05:58:21;;;;;;;;;8.00;1.00;;;;;13.52;65.77;100868.28;5070588;28;45406;-78
2023/09/23 06:00:46;;;;;;;;;1.00;1.00;;;;;13.54;65.98;100858.56;5066874;28;68924;-78
2023/09/23 06:03:12;;;;;;;;;2.00;1.00;;;;;13.55;65.43;100872.59;5069002;28;44934;-78
2023/09/23 06:05:39;;;;;;;;;3.00;1.00;;;;;13.58;65.69;100889.13;5069993;28;45250;-78
2023/09/23 06:08:04;;;;;;;;;2.00;0.75;;;;;13.57;65.93;100879.50;5065192;28;45278;-78
2023/09/23 06:10:31;;;;;;;;;1.00;1.00;;;;;13.57;65.62;100889.16;5060698;28;45403;-80
2023/09/23 06:12:56;;;;;;;;;2.25;1.00;;;;;13.58;65.30;100891.75;5060510;28;45449;-79
2023/09/23 06:15:22;;;;;;;;;4.00;0.00;;;;;13.58;65.62;100904.91;5058764;28;45296;-79
2023/09/23 06:17:48;;;;;;;;;4.00;2.00;;;;;13.60;65.87;100904.84;5046738;28;45450;-81
2023/09/23 06:20:13;;;;;;;;;1.75;1.00;;;;;13.59;65.62;100911.00;5060323;28;61589;-80
2023/09/23 06:22:40;;;;;;;;;1.00;1.00;;;;;13.58;65.49;100904.00;5038734;28;47299;-80
2023/09/23 06:25:05;;;;;;;;;0.00;0.00;;;;;13.63;65.44;100923.13;5041920;28;45642;-79
2023/09/23 06:27:31;;;;;;;;;0.00;0.00;;;;;13.63;65.11;100918.72;5050304;28;45454;-79
2023/09/23 06:29:56;;;;;;;;;2.75;1.00;;;;;13.64;65.45;100915.19;5051257;28;45592;-79
2023/09/23 06:32:21;;;;;;;;;2.00;0.00;;;;;13.66;65.72;100923.84;5052093;28;46793;-80
2023/09/23 06:34:47;;;;;;;;;2.00;0.50;;;;;13.67;65.28;100925.59;5051247;28;56886;-79
2023/09/23 06:37:12;;;;;;;;;1.75;1.00;;;;;13.70;65.32;100929.88;5034285;28;58786;-79
2023/09/23 06:39:37;;;;;;;;;2.00;1.00;;;;;13.72;65.00;100935.06;5055723;28;62110;-78
2023/09/23 06:42:03;;;;;;;;;1.50;0.25;;;;;13.72;64.84;100941.19;5041218;28;48095;-79
2023/09/23 06:44:28;;;;;;;;;2.00;1.00;;;;;13.76;65.20;100941.97;5047025;28;45450;-77
2023/09/23 06:46:54;;;;;;;;;2.00;1.00;;;;;13.76;64.85;100947.22;5052284;28;45372;-78
2023/09/23 06:49:22;;;;;;;;;1.00;0.00;;;;;13.76;64.82;100942.81;5053023;28;55495;-79
2023/09/23 06:51:47;;;;;;;;;2.75;1.00;;;;;13.79;64.49;100944.44;5047630;28;46179;-80
2023/09/23 06:54:13;;;;;;;;;3.25;1.75;;;;;13.81;64.42;100943.50;5054828;28;45293;-78
2023/09/23 06:56:38;;;;;;;;;2.00;1.25;;;;;13.83;64.85;100943.44;5048917;28;60855;-78
2023/09/23 06:59:04;;;;;;;;;2.00;1.00;;;;;13.84;64.63;100951.25;5048681;28;45419;-77
2023/09/23 07:01:29;;;;;;;;;3.25;1.00;;;;;13.88;64.78;100953.78;5045442;28;45272;-78
2023/09/23 07:03:54;;;;;;;;;3.25;1.75;;;;;13.90;64.48;100960.72;5055873;28;61450;-78
2023/09/23 07:06:20;;;;;;;;;1.75;1.75;;;;;13.89;64.56;100958.13;5061598;28;45853;-78
2023/09/23 07:08:45;;;;;;;;;4.00;1.00;;;;;13.93;64.23;100970.25;5054180;28;69128;-78
2023/09/23 07:11:14;;;;;;;;;2.00;1.00;;;;;13.91;64.53;100969.47;5054113;28;45345;-75
2023/09/23 07:13:39;;;;;;;;;3.25;1.25;;;;;13.91;64.49;100977.34;5047111;28;45409;-75
2023/09/23 07:16:05;;;;;;;;;1.00;1.00;;;;;13.92;64.63;100981.72;5052599;28;64511;-77
2023/09/23 07:18:31;;;;;;;;;4.75;1.25;;;;;13.94;64.47;100985.97;5045555;28;45514;-73
2023/09/23 07:20:57;;;;;;;;;3.00;1.00;;;;;13.98;64.75;100995.47;5050414;28;45587;-77
2023/09/23 07:23:22;;;;;;;;;4.25;0.75;;;;;14.00;64.72;100988.38;5049333;28;45446;-77
2023/09/23 07:25:48;;;;;;;;;2.00;0.25;;;;;14.07;64.40;101004.78;5051239;28;63039;-75
2023/09/23 07:28:13;;;;;;;;;0.00;0.00;;;;;14.10;64.43;101003.84;5053554;28;47676;-76
2023/09/23 07:30:39;;;;;;;;;1.00;0.00;;;;;14.11;64.59;101003.78;5052912;28;47264;-76
2023/09/23 07:33:04;;;;;;;;;1.00;1.00;;;;;14.16;64.12;101008.88;5057306;28;45465;-76
2023/09/23 07:35:34;;;;;;;;;5.25;1.00;;;;;14.18;64.30;101010.53;5070991;28;45439;-74
2023/09/23 07:38:02;;;;;;;;;2.50;0.25;;;;;14.20;64.09;101005.19;5030372;28;45602;-76
2023/09/23 07:40:29;;;;;;;;;0.75;0.75;;;;;14.22;64.40;101006.00;5035597;28;47240;-75
2023/09/23 07:42:55;;;;;;;;;47.75;35.75;;;;;14.30;64.39;101013.59;5043790;28;45989;-76
2023/09/23 07:45:20;;;;;;;;;144.50;126.50;;;;;14.36;63.98;101021.25;5055783;28;45423;-75
2023/09/23 07:47:46;;;;;;;;;2.00;0.00;;;;;14.41;63.53;101033.34;5054067;28;45574;-74
2023/09/23 07:50:11;;;;;;;;;2.50;1.00;;;;;14.44;63.65;101033.22;5056915;28;51875;-75
2023/09/23 07:52:37;;;;;;;;;0.75;0.00;;;;;14.46;63.42;101032.31;5048383;28;59741;-75
2023/09/23 07:55:04;;;;;;;;;3.50;1.00;;;;;14.54;63.92;101033.75;5060216;28;45380;-78
2023/09/23 07:57:30;;;;;;;;;3.00;0.00;;;;;14.60;63.74;101046.69;5058279;28;45739;-77
2023/09/23 07:59:55;;;;;;;;;3.00;2.00;;;;;14.68;63.64;101048.16;5053897;28;45285;-76
2023/09/23 08:02:21;;;;;;;;;2.50;1.00;;;;;14.75;63.02;101052.25;5059184;28;45457;-76
2023/09/23 08:04:46;;;;;;;;;3.25;1.00;;;;;14.85;63.18;101058.03;5046179;28;54414;-77
2023/09/23 08:07:11;;;;;;;;;2.75;1.25;;;;;14.93;63.10;101058.63;5046528;28;45407;-77
2023/09/23 08:09:37;;;;;;;;;3.00;1.00;;;;;15.03;62.78;101064.34;5060077;28;46065;-76
2023/09/23 08:12:03;;;;;;;;;3.50;3.00;;;;;15.11;62.71;101070.19;5048613;28;45493;-76
2023/09/23 08:14:28;;;;;;;;;2.25;1.00;;;;;15.25;62.64;101082.81;5045762;28;45244;-81
2023/09/23 08:16:53;;;;;;;;;2.75;1.00;;;;;15.42;62.11;101090.00;5051531;28;45351;-81
2023/09/23 08:19:19;;;;;;;;;2.00;1.00;;;;;15.57;62.21;101090.22;5052600;28;66442;-81
2023/09/23 08:21:45;;;;;;;;;11.00;7.50;;;;;15.70;61.42;101098.47;5050523;28;72408;-81
2023/09/23 08:24:11;;;;;;;;;12.00;10.00;;;;;15.83;60.90;101106.78;5049066;28;45283;-81
2023/09/23 08:26:37;;;;;;;;;3.50;1.00;;;;;15.96;60.96;101096.53;5059682;28;45600;-80
2023/09/23 08:29:02;;;;;;;;;0.00;0.00;;;;;16.05;60.84;101104.03;5056130;28;45360;-81
2023/09/23 08:31:28;;;;;;;;;4.75;1.00;;;;;16.14;60.20;101114.19;5056128;28;45299;-81
2023/09/23 08:33:53;;;;;;;;;6.25;3.25;;;;;16.23;60.10;101107.66;5057752;28;54771;-81
2023/09/23 08:36:19;;;;;;;;;3.50;0.00;;;;;16.25;59.77;101100.50;5057771;28;46052;-80
2023/09/23 08:38:45;;;;;;;;;3.00;0.50;;;;;16.37;59.53;101111.47;5053054;28;46920;-76
2023/09/23 08:41:11;;;;;;;;;1.00;1.00;;;;;16.39;59.44;101113.09;5050283;28;45534;-86
2023/09/23 08:43:37;;;;;;;;;1.75;0.25;;;;;16.39;58.86;101115.75;5049302;28;45391;-83
2023/09/23 08:46:07;;;;;;;;;2.25;0.00;;;;;16.40;59.16;101124.53;5040483;28;45481;-77
2023/09/23 08:48:33;;;;;;;;;0.25;0.00;;;;;16.38;58.91;101127.25;5051569;28;46354;-82
2023/09/23 08:51:02;;;;;;;;;1.25;0.75;;;;;16.36;59.04;101139.69;5053565;28;71991;-82
2023/09/23 08:53:27;;;;;;;;;1.25;0.00;;;;;16.26;58.84;101138.38;5075895;28;45449;-74
2023/09/23 08:55:53;;;;;;;;;0.50;0.50;;;;;16.21;59.23;101148.28;5047378;28;45314;-80
2023/09/23 08:58:19;;;;;;;;;2.00;0.00;;;;;16.14;59.41;101143.25;5059575;28;47190;-74
2023/09/23 09:00:46;;;;;;;;;37.50;26.50;;;;;16.07;59.44;101151.50;5055185;28;45441;-72
2023/09/23 09:03:12;;;;;;;;;9.25;5.25;;;;;16.04;59.71;101152.50;5068386;27;45335;-73
2023/09/23 09:05:42;;;;;;;;;2.25;0.75;;;;;15.99;59.16;101151.84;5055830;28;45560;-74
2023/09/23 09:08:08;;;;;;;;;1.50;0.25;;;;;15.96;59.54;101148.47;5045972;28;45408;-77
2023/09/23 09:10:33;;;;;;;;;4.00;2.00;;;;;16.02;59.74;101156.13;5065164;28;45473;-75
2023/09/23 09:13:03;;;;;;;;;0.75;0.25;;;;;16.02;59.61;101148.19;5062261;28;45329;-80
2023/09/23 09:15:30;;;;;;;;;3.50;1.25;;;;;16.08;59.81;101156.72;5068414;27;45188;-75
2023/09/23 09:17:57;;;;;;;;;1.75;0.50;;;;;16.13;58.84;101162.66;5052655;28;46199;-75
2023/09/23 09:20:23;;;;;;;;;1.00;1.00;;;;;16.12;59.15;101154.81;5070047;27;45411;-77
2023/09/23 09:22:50;;;;;;;;;1.50;0.50;;;;;16.17;59.02;101157.25;5043844;28;64489;-74
2023/09/23 09:25:20;;;;;;;;;2.25;0.50;;;;;16.18;59.06;101159.81;5052056;28;45629;-77
2023/09/23 09:27:46;;;;;;;;;1.75;0.50;;;;;16.22;59.31;101152.59;5047964;28;45837;-75
2023/09/23 09:30:11;;;;;;;;;3.50;2.00;;;;;16.27;59.06;101159.44;5058898;28;45473;-74
2023/09/23 09:32:40;;;;;;;;;2.75;1.25;;;;;16.35;59.06;101153.78;5057822;28;45485;-72
2023/09/23 09:35:19;;;;;;;;;2.00;1.50;;;;;16.43;58.80;101150.81;5054536;28;47420;-74
2023/09/23 09:37:47;;;;;;;;;1.00;1.00;;;;;16.48;58.58;101152.34;5057316;28;46291;-74
2023/09/23 09:40:17;;;;;;;;;0.50;0.50;;;;;16.58;58.62;101158.03;5041375;28;45845;-74
2023/09/23 09:42:57;;;;;;;;;1.25;1.25;;;;;16.67;58.39;101157.63;5058374;28;45263;-74
2023/09/23 09:45:23;;;;;;;;;4.00;0.50;;;;;16.77;58.03;101155.44;5057297;28;45478;-74
2023/09/23 09:47:50;;;;;;;;;1.25;1.25;;;;;16.87;58.00;101153.22;5059698;27;47558;-69
2023/09/23 09:50:15;;;;;;;;;0.50;0.50;;;;;16.97;57.82;101158.97;5057128;28;45461;-69
2023/09/23 09:52:44;;;;;;;;;3.00;0.75;;;;;17.05;57.88;101157.66;5057341;28;45302;-76
2023/09/23 09:55:11;;;;;;;;;1.25;0.75;;;;;17.17;58.15;101160.66;5058172;28;45619;-69
2023/09/23 09:57:36;;;;;;;;;1.25;0.75;;;;;17.18;57.96;101159.72;5059194;28;45422;-70
2023/09/23 10:00:09;;;;;;;;;2.75;1.00;;;;;17.25;57.21;101161.16;5034734;28;66220;-68
2023/09/23 10:02:37;;;;;;;;;3.50;2.75;;;;;17.32;57.12;101165.22;5043314;28;45692;-65
2023/09/23 10:05:03;;;;;;;;;4.00;4.00;;;;;17.40;56.49;101175.41;5045032;28;45493;-64
2023/09/23 10:07:54;;;;;;;;;5.00;1.75;;;;;17.53;56.59;101178.31;5056421;28;45442;-68
2023/09/23 10:10:31;;;;;;;;;6.75;1.75;;;;;17.62;56.19;101172.59;5052658;28;45816;-69
2023/09/23 10:13:26;;;;;;;;;1.00;1.00;;;;;17.75;55.84;101183.41;5068885;28;45453;-68
2023/09/23 10:16:02;;;;;;;;;3.00;1.00;;;;;17.87;54.98;101174.03;5042514;28;45435;-68
2023/09/23 10:18:39;;;;;;;;;7.50;2.00;;;;;17.92;55.24;101175.50;5049691;28;45345;-68
2023/09/23 10:21:05;;;;;;;;;0.75;0.75;;;;;18.02;55.19;101179.41;5053532;28;45430;-69
2023/09/23 10:23:35;;;;;;;;;1.25;1.25;;;;;18.10;54.93;101181.66;5041141;28;45620;-71
2023/09/23 10:26:13;;;;;;;;;2.50;0.75;;;;;18.13;54.74;101189.47;5048353;28;45482;-71
2023/09/23 10:28:39;;;;;;;;;8.25;6.00;;;;;18.16;54.78;101191.06;5053710;28;47334;-72
2023/09/23 10:31:05;;;;;;;;;4.00;4.00;;;;;18.20;54.45;101189.97;5048725;28;45469;-71
2023/09/23 10:33:32;;;;;;;;;4.25;3.00;;;;;18.26;54.39;101183.53;5052486;28;45593;-70
2023/09/23 10:35:58;;;;;;;;;5.25;2.25;;;;;18.33;54.26;101193.72;5044388;28;45496;-72
2023/09/23 10:38:27;;;;;;;;;2.00;2.00;;;;;18.46;54.03;101190.41;5044932;28;46254;-71
2023/09/23 10:40:54;;;;;;;;;34.50;28.25;;;;;18.53;53.94;101195.31;5055461;28;45410;-71
2023/09/23 10:43:22;;;;;;;;;8.75;7.25;;;;;18.68;53.89;101192.78;5052801;28;45430;-71
2023/09/23 10:45:48;;;;;;;;;3.25;3.00;;;;;18.73;53.45;101196.03;5058504;28;45482;-71
2023/09/23 10:48:17;;;;;;;;;5.75;3.75;;;;;18.82;53.56;101200.88;5053688;28;46143;-71
2023/09/23 10:50:44;;;;;;;;;1.50;1.50;;;;;18.87;53.29;101205.94;5049799;28;45767;-72
2023/09/23 10:53:11;;;;;;;;;4.25;2.00;;;;;18.85;52.33;101207.81;5053618;28;45332;-72
2023/09/23 10:55:36;;;;;;;;;12.50;6.00;;;;;18.87;52.65;101213.88;5050878;28;45367;-71
2023/09/23 10:58:02;;;;;;;;;8.25;8.00;;;;;18.89;52.90;101207.56;5048497;28;75958;-71
2023/09/23 11:00:33;;;;;;;;;8.25;7.50;;;;;18.94;52.26;101209.97;5052912;28;45322;-71
2023/09/23 11:03:08;;;;;;;;;5.75;2.50;;;;;19.02;52.79;101213.06;5056805;28;45375;-71
2023/09/23 11:05:37;;;;;;;;;3.00;1.25;;;;;19.13;52.68;101220.44;5051446;28;45268;-71
2023/09/23 11:08:04;;;;;;;;;2.25;1.25;;;;;19.18;51.82;101220.19;5051638;28;45435;-71
2023/09/23 11:10:29;;;;;;;;;5.75;3.50;;;;;19.18;50.87;101217.53;5051869;28;45560;-71
2023/09/23 11:12:55;;;;;;;;;4.75;2.75;;;;;19.17;51.67;101214.00;5056608;28;45311;-72
2023/09/23 11:15:21;;;;;;;;;3.25;2.25;;;;;19.20;52.47;101224.44;5055582;28;45281;-71
2023/09/23 11:17:46;;;;;;;;;4.50;0.75;;;;;19.22;51.25;101224.38;5044212;28;45416;-70
2023/09/23 11:20:12;;;;;;;;;3.25;1.00;;;;;19.17;50.23;101227.25;5069798;28;45554;-71
2023/09/23 11:22:38;;;;;;;;;2.50;2.50;;;;;19.12;50.73;101235.50;5069478;27;45438;-71
2023/09/23 11:25:09;;;;;;;;;2.75;2.00;;;;;18.99;50.16;101239.75;5050305;28;45417;-72